Time;durP1;ratioP1;P1;durP2;ratioP2;P2;SDS_P1;SDS_P2;PMS_P1;PMS_P2;Temp;Humidity;BMP_temperature;BMP_pressure;BME280_temperature;BME280_humidity;BME280_pressure;Samples;Min_cycle;Max_cycle;Signal;HPM_P1;HPM_P2
2021/11/06 00:00:25;;;;;;;8.20;5.00;;;;;;;7.91;85.10;101510.25;1624579;87;20938;-74
2021/11/06 00:02:53;;;;;;;8.20;6.10;;;;;;;7.93;85.06;101515.85;1618858;86;21078;-74
2021/11/06 00:05:19;;;;;;;6.42;5.47;;;;;;;7.93;85.02;101505.97;1619609;86;21062;-74
2021/11/06 00:07:45;;;;;;;5.50;4.78;;;;;;;7.91;84.97;101509.82;1631257;86;21007;-74
2021/11/06 00:10:19;;;;;;;6.33;5.10;;;;;;;7.88;84.93;101504.64;1611379;86;21557;-74
2021/11/06 00:12:48;;;;;;;6.85;5.10;;;;;;;7.86;84.91;101505.05;1619371;86;21594;-75
2021/11/06 00:15:14;;;;;;;6.87;5.60;;;;;;;7.83;84.93;101504.16;1619994;87;21655;-75
2021/11/06 00:17:41;;;;;;;6.42;4.78;;;;;;;7.79;84.89;101500.72;1610815;87;21624;-75
2021/11/06 00:20:11;;;;;;;8.23;5.67;;;;;;;7.75;84.92;101501.55;1623803;87;21054;-75
2021/11/06 00:22:38;;;;;;;6.65;5.22;;;;;;;7.70;84.92;101498.06;1622275;87;21031;-75
2021/11/06 00:25:07;;;;;;;7.95;5.30;;;;;;;7.68;84.90;101496.31;1613768;87;21602;-75
2021/11/06 00:27:33;;;;;;;6.42;4.58;;;;;;;7.64;84.94;101500.57;1611147;86;21575;-75
2021/11/06 00:30:00;;;;;;;6.75;4.78;;;;;;;7.62;84.95;101507.41;1628604;86;20974;-75
2021/11/06 00:32:26;;;;;;;;;;;;;;;7.60;84.95;101502.67;1621000;86;20979;-74
2021/11/06 00:34:52;;;;;;;6.22;4.60;;;;;;;7.57;84.99;101506.08;1626935;87;20486;-74
2021/11/06 00:37:18;;;;;;;8.35;4.92;;;;;;;7.57;84.99;101502.22;1610376;86;21542;-74
2021/11/06 00:39:51;;;;;;;6.70;4.97;;;;;;;7.55;85.01;101500.05;1619502;86;21518;-74
2021/11/06 00:42:18;;;;;;;9.10;5.03;;;;;;;7.56;85.01;101503.48;1615339;87;21617;-74
2021/11/06 00:44:44;;;;;;;5.78;4.85;;;;;;;7.55;85.03;101510.34;1613977;87;21949;-74
2021/11/06 00:47:11;;;;;;;9.70;4.75;;;;;;;7.56;85.02;101511.20;1632841;85;21645;-74
2021/11/06 00:49:38;;;;;;;6.37;4.87;;;;;;;7.58;85.00;101518.52;1626931;87;21090;-75
2021/11/06 00:52:07;;;;;;;5.65;4.42;;;;;;;7.59;85.03;101518.96;1630893;86;21014;-75
2021/11/06 00:54:33;;;;;;;9.03;4.92;;;;;;;7.59;85.02;101522.83;1642362;85;21016;-74
2021/11/06 00:56:59;;;;;;;5.75;4.12;;;;;;;7.60;85.02;101520.69;1632571;86;20937;-74
2021/11/06 00:59:25;;;;;;;6.05;4.78;;;;;;;7.61;85.00;101526.28;1632951;85;21312;-74
2021/11/06 01:01:51;;;;;;;6.12;4.75;;;;;;;7.61;84.99;101521.99;1615749;88;21005;-74
2021/11/06 01:04:21;;;;;;;6.62;4.97;;;;;;;7.64;85.00;101527.59;1623565;87;20949;-74
2021/11/06 01:06:47;;;;;;;9.20;5.72;;;;;;;7.66;85.02;101519.89;1627766;85;20933;-74
2021/11/06 01:09:13;;;;;;;8.73;5.00;;;;;;;7.68;85.01;101528.07;1634315;86;21605;-74
2021/11/06 01:11:39;;;;;;;7.90;4.83;;;;;;;7.71;85.00;101523.38;1632960;87;21427;-74
2021/11/06 01:14:06;;;;;;;6.42;5.00;;;;;;;7.72;85.01;101524.68;1634242;85;21386;-74
2021/11/06 01:16:32;;;;;;;5.08;4.58;;;;;;;7.74;84.99;101524.27;1643839;85;20977;-74
2021/11/06 01:18:58;;;;;;;5.85;5.25;;;;;;;7.76;84.97;101520.00;1641189;87;21416;-75
2021/11/06 01:21:25;;;;;;;12.30;5.10;;;;;;;7.78;84.96;101518.73;1636048;85;21366;-75
2021/11/06 01:23:52;;;;;;;6.12;4.60;;;;;;;7.80;84.96;101512.72;1642848;87;20902;-75
2021/11/06 01:26:18;;;;;;;5.97;5.00;;;;;;;7.82;84.94;101515.30;1636928;85;20915;-75
2021/11/06 01:28:44;;;;;;;7.10;4.83;;;;;;;7.82;84.96;101512.73;1648562;86;21454;-75
2021/11/06 01:31:11;;;;;;;5.75;5.15;;;;;;;7.83;84.93;101521.76;1628167;87;21486;-75
2021/11/06 01:33:37;;;;;;;5.67;4.80;;;;;;;7.84;84.92;101514.90;1622891;87;20923;-75
2021/11/06 01:36:04;;;;;;;6.03;4.73;;;;;;;7.84;84.92;101511.90;1620068;86;22237;-75
2021/11/06 01:38:32;;;;;;;6.92;5.20;;;;;;;7.85;84.94;101515.34;1626876;86;21619;-75
2021/11/06 01:40:59;;;;;;;5.45;4.70;;;;;;;7.85;84.90;101512.77;1639187;86;21450;-75
2021/11/06 01:43:25;;;;;;;5.40;4.90;;;;;;;7.85;84.89;101510.19;1657055;86;21454;-75
2021/11/06 01:45:59;;;;;;;6.00;4.58;;;;;;;7.85;84.90;101515.34;1648192;86;21422;-75
2021/11/06 01:48:25;;;;;;;9.03;5.20;;;;;;;7.84;84.89;101518.33;1642886;86;20900;-75
2021/11/06 01:50:52;;;;;;;;;;;;;;;7.83;84.89;101520.89;1649129;85;21366;-75
2021/11/06 01:53:18;;;;;;;10.15;4.87;;;;;;;7.83;84.90;101527.33;1645805;86;20166;-74
2021/11/06 01:55:46;;;;;;;6.15;4.92;;;;;;;7.81;84.92;101520.88;1637573;85;21150;-74
2021/11/06 01:58:15;;;;;;;5.85;4.90;;;;;;;7.82;84.89;101522.61;1631274;87;21532;-74
2021/11/06 02:00:42;;;;;;;8.70;4.90;;;;;;;7.79;84.88;101518.75;1610607;87;21561;-76
2021/11/06 02:03:08;;;;;;;10.00;4.83;;;;;;;7.79;84.88;101522.61;1631627;87;21128;-76
2021/11/06 02:05:35;;;;;;;8.40;5.05;;;;;;;7.77;84.91;101524.30;1620698;87;21603;-76
2021/11/06 02:08:02;;;;;;;9.33;4.62;;;;;;;7.75;85.08;101522.14;1643000;86;21146;-75
2021/11/06 02:10:30;;;;;;;10.90;5.53;;;;;;;7.75;85.08;101522.14;1642971;86;21500;-75
2021/11/06 02:12:57;;;;;;;6.28;5.20;;;;;;;7.75;84.91;101524.71;1640196;86;20960;-75
2021/11/06 02:15:24;;;;;;;5.58;4.65;;;;;;;7.74;84.90;101527.27;1646610;86;21398;-75
2021/11/06 02:17:50;;;;;;;5.90;5.30;;;;;;;7.73;84.89;101528.98;1632632;87;21587;-75
2021/11/06 02:20:22;;;;;;;6.62;4.83;;;;;;;7.73;84.89;101525.12;1633825;85;21003;-75
2021/11/06 02:22:50;;;;;;;6.95;4.58;;;;;;;7.73;84.89;101522.97;1627298;86;21079;-75
2021/11/06 02:25:16;;;;;;;5.90;4.97;;;;;;;7.72;84.90;101520.82;1627334;87;21072;-75
2021/11/06 02:27:43;;;;;;;;;;;;;;;7.72;84.89;101524.68;1638295;86;21082;-75
2021/11/06 02:30:13;;;;;;;4.60;4.20;;;;;;;7.72;84.88;101527.25;1621633;88;20220;-75
2021/11/06 02:32:41;;;;;;;7.85;4.37;;;;;;;7.72;84.91;101529.83;1630012;87;21061;-75
2021/11/06 02:35:08;;;;;;;9.20;5.97;;;;;;;7.72;84.90;101525.11;1620573;86;21101;-75
2021/11/06 02:37:36;;;;;;;9.05;5.60;;;;;;;7.71;84.88;101524.66;1628950;87;21067;-75
2021/11/06 02:40:04;;;;;;;5.50;4.90;;;;;;;7.71;84.88;101528.10;1641993;86;21657;-75
2021/11/06 02:42:31;;;;;;;7.15;5.00;;;;;;;7.69;84.86;101531.09;1622271;86;21088;-75
2021/11/06 02:44:57;;;;;;;;;;;;;;;7.67;84.87;101535.35;1610965;87;21070;-75
2021/11/06 02:47:23;;;;;;;7.47;5.28;;;;;;;7.67;84.86;101529.34;1623050;86;20269;-75
2021/11/06 02:49:59;;;;;;;6.60;5.50;;;;;;;7.64;84.86;101532.75;1627996;86;21060;-75
2021/11/06 02:52:25;;;;;;;6.80;5.63;;;;;;;7.61;84.90;101525.85;1617031;86;21026;-75
2021/11/06 02:54:51;;;;;;;12.63;5.40;;;;;;;7.60;84.88;101525.41;1631373;86;21017;-74
2021/11/06 02:57:17;;;;;;;8.13;5.43;;;;;;;7.59;84.90;101534.41;1623151;87;21112;-76
2021/11/06 02:59:43;;;;;;;10.35;5.33;;;;;;;7.59;84.90;101529.26;1662529;86;21052;-75
2021/11/06 03:02:09;;;;;;;6.83;5.23;;;;;;;7.58;84.88;101536.54;1663962;85;20996;-75
2021/11/06 03:04:39;;;;;;;9.63;6.23;;;;;;;7.58;84.88;101539.11;1663109;85;21089;-75
2021/11/06 03:07:06;;;;;;;10.43;5.75;;;;;;;7.56;84.89;101535.66;1663774;85;21064;-75
2021/11/06 03:09:37;;;;;;;;;;;;;;;7.55;84.90;101533.93;1666294;85;21438;-75
2021/11/06 03:12:01;;;;;;;6.83;5.30;;;;;;;7.52;84.86;101535.18;1663035;85;20126;-75
2021/11/06 03:14:27;;;;;;;7.65;4.80;;;;;;;7.50;84.87;101539.45;1650663;85;21029;-75
2021/11/06 03:16:53;;;;;;;5.33;4.70;;;;;;;7.48;84.87;101545.00;1664214;84;21085;-75
2021/11/06 03:19:20;;;;;;;5.67;4.67;;;;;;;7.46;84.87;101551.84;1661082;85;21421;-75
2021/11/06 03:21:48;;;;;;;8.00;5.42;;;;;;;7.44;84.91;101548.37;1663145;84;21044;-75
2021/11/06 03:24:14;;;;;;;10.83;5.40;;;;;;;7.44;84.88;101557.39;1663433;85;21666;-75
2021/11/06 03:26:40;;;;;;;6.10;5.00;;;;;;;7.41;84.87;101554.36;1663730;84;21047;-75
2021/11/06 03:29:07;;;;;;;5.60;5.10;;;;;;;7.40;84.89;101559.48;1663628;84;21052;-75
2021/11/06 03:31:33;;;;;;;7.15;5.55;;;;;;;7.39;84.89;101548.75;1663403;84;21513;-75
2021/11/06 03:33:59;;;;;;;7.55;5.17;;;;;;;7.38;84.89;101556.03;1663544;86;21336;-75
2021/11/06 03:36:25;;;;;;;5.37;4.83;;;;;;;7.37;84.93;101563.30;1663678;85;21076;-75
2021/11/06 03:38:52;;;;;;;7.60;4.60;;;;;;;7.36;84.88;101564.15;1663494;86;22380;-75
2021/11/06 03:41:18;;;;;;;8.40;4.83;;;;;;;7.36;84.91;101559.00;1607070;87;21131;-75
2021/11/06 03:43:44;;;;;;;8.80;5.73;;;;;;;7.35;84.91;101562.42;1616370;87;22187;-75
2021/11/06 03:46:10;;;;;;;5.87;5.37;;;;;;;7.34;84.89;101558.98;1613575;86;21110;-75
2021/11/06 03:48:36;;;;;;;8.47;5.50;;;;;;;7.35;84.89;101559.84;1632907;86;21103;-75
2021/11/06 03:51:02;;;;;;;4.95;4.50;;;;;;;7.33;84.89;101565.40;1633199;87;21083;-75
2021/11/06 03:53:28;;;;;;;9.60;5.22;;;;;;;7.33;84.92;101565.40;1634215;86;21406;-74
2021/11/06 03:55:57;;;;;;;8.40;5.20;;;;;;;7.33;84.93;101573.98;1630376;86;20978;-75
2021/11/06 03:58:23;;;;;;;7.30;4.17;;;;;;;7.33;84.92;101578.26;1634792;86;20953;-75
2021/11/06 04:00:49;;;;;;;7.90;5.13;;;;;;;7.34;84.91;101583.84;1647637;86;20955;-75
2021/11/06 04:03:15;;;;;;;7.00;4.80;;;;;;;7.33;84.92;101577.84;1631677;87;21591;-75
2021/11/06 04:05:42;;;;;;;5.97;5.17;;;;;;;7.32;84.94;101577.39;1613496;87;21426;-75
2021/11/06 04:08:08;;;;;;;6.40;4.92;;;;;;;7.29;84.92;101574.36;1646314;86;21421;-75
2021/11/06 04:10:35;;;;;;;7.58;5.10;;;;;;;7.33;84.94;101579.13;1640737;86;20925;-75
2021/11/06 04:13:02;;;;;;;6.45;4.92;;;;;;;7.33;84.94;101581.70;1638396;86;20970;-75
2021/11/06 04:15:28;;;;;;;7.80;4.95;;;;;;;7.33;84.92;101579.13;1610937;88;21051;-75
2021/11/06 04:17:56;;;;;;;8.40;4.78;;;;;;;7.34;84.92;101586.42;1609359;88;21151;-75
2021/11/06 04:20:22;;;;;;;7.05;4.45;;;;;;;7.35;84.96;101581.30;1642567;87;20940;-75
2021/11/06 04:22:50;;;;;;;5.67;4.22;;;;;;;7.36;84.96;101574.02;1628451;87;20925;-75
2021/11/06 04:25:21;;;;;;;5.28;4.50;;;;;;;7.36;84.95;101577.88;1635036;87;20982;-75
2021/11/06 04:27:48;;;;;;;6.23;4.90;;;;;;;7.36;84.95;101573.16;1634117;86;20956;-75
2021/11/06 04:30:14;;;;;;;5.73;4.70;;;;;;;7.37;84.93;101573.59;1633054;87;20986;-75
2021/11/06 04:32:41;;;;;;;12.73;5.35;;;;;;;7.36;84.95;101577.02;1634215;87;21669;-75
2021/11/06 04:35:08;;;;;;;8.93;5.28;;;;;;;7.37;84.96;101578.31;1622814;87;20914;-75
2021/11/06 04:37:34;;;;;;;7.08;4.45;;;;;;;7.38;84.97;101576.61;1647878;86;21003;-75
2021/11/06 04:40:01;;;;;;;13.25;5.35;;;;;;;7.40;84.96;101572.34;1620689;88;21085;-75
2021/11/06 04:42:26;;;;;;;9.33;4.95;;;;;;;7.39;84.97;101575.77;1643789;86;21137;-75
2021/11/06 04:44:53;;;;;;;7.72;5.25;;;;;;;7.40;84.97;101581.36;1604487;86;21085;-75
2021/11/06 04:47:19;;;;;;;6.65;5.12;;;;;;;7.39;84.98;101573.19;1612482;88;21082;-74
2021/11/06 04:49:45;;;;;;;6.67;4.80;;;;;;;7.40;84.98;101578.78;1614186;87;21084;-74
2021/11/06 04:52:11;;;;;;;7.62;5.00;;;;;;;7.42;85.00;101576.67;1639901;86;21057;-75
2021/11/06 04:54:37;;;;;;;9.17;5.73;;;;;;;7.41;84.99;101567.64;1627644;87;21080;-75
2021/11/06 04:57:04;;;;;;;11.10;5.30;;;;;;;7.42;84.94;101566.80;1643893;85;20945;-75
2021/11/06 04:59:30;;;;;;;12.50;5.70;;;;;;;7.42;84.96;101568.08;1625679;86;21123;-75
2021/11/06 05:01:57;;;;;;;7.17;5.43;;;;;;;7.40;84.98;101569.77;1635784;85;21088;-75
2021/11/06 05:04:23;;;;;;;8.88;5.53;;;;;;;7.41;84.97;101567.64;1624941;87;21075;-76
2021/11/06 05:06:52;;;;;;;6.92;5.05;;;;;;;7.41;85.01;101572.37;1626647;86;21074;-76
2021/11/06 05:09:19;;;;;;;6.58;5.40;;;;;;;7.42;85.00;101576.67;1640419;87;21138;-76
2021/11/06 05:11:45;;;;;;;5.60;4.97;;;;;;;7.41;85.01;101578.80;1633686;86;27631;-75
2021/11/06 05:14:11;;;;;;;7.33;5.12;;;;;;;7.43;85.04;101573.67;1632180;86;21089;-75
2021/11/06 05:16:38;;;;;;;8.95;5.05;;;;;;;7.44;85.01;101580.55;1627883;87;21089;-75
2021/11/06 05:19:04;;;;;;;7.95;5.42;;;;;;;7.44;85.05;101578.84;1629892;87;21064;-75
2021/11/06 05:21:36;;;;;;;10.47;5.57;;;;;;;7.45;85.02;101581.85;1632849;87;20950;-75
2021/11/06 05:23:58;;;;;;;10.38;5.55;;;;;;;7.46;85.02;101584.00;1636494;86;21108;-76
2021/11/06 05:26:24;;;;;;;10.40;7.10;;;;;;;7.46;85.01;101577.15;1642381;87;20976;-76
2021/11/06 05:28:49;;;;;;;11.27;5.87;;;;;;;7.47;85.04;101585.73;1642456;86;21516;-76
2021/11/06 05:31:16;;;;;;;9.13;5.40;;;;;;;7.48;85.03;101573.31;1641643;86;21065;-76
2021/11/06 05:33:42;;;;;;;5.83;5.33;;;;;;;7.48;85.03;101575.45;1640954;86;21027;-76
2021/11/06 05:36:09;;;;;;;9.80;5.97;;;;;;;7.50;85.05;101578.05;1631159;87;21082;-76
2021/11/06 05:38:35;;;;;;;10.43;5.57;;;;;;;7.50;85.05;101577.62;1622396;86;21491;-76
2021/11/06 05:41:01;;;;;;;9.17;5.67;;;;;;;7.52;85.06;101587.94;1641219;86;20955;-76
2021/11/06 05:43:27;;;;;;;7.35;5.60;;;;;;;7.52;85.06;101581.50;1641229;85;21451;-76
2021/11/06 05:45:53;;;;;;;7.93;5.93;;;;;;;7.54;85.02;101587.53;1643347;86;21129;-76
2021/11/06 05:48:19;;;;;;;8.87;6.17;;;;;;;7.55;85.05;101598.27;1649698;86;21691;-76
2021/11/06 05:50:48;;;;;;;9.33;5.60;;;;;;;7.55;85.03;101594.41;1643033;86;21108;-76
2021/11/06 05:53:14;;;;;;;11.88;5.58;;;;;;;7.57;85.04;101603.02;1683900;84;21096;-75
2021/11/06 05:55:40;;;;;;;7.87;5.45;;;;;;;7.58;85.04;101603.45;1683117;84;21073;-75
2021/11/06 05:58:07;;;;;;;8.38;5.53;;;;;;;7.59;85.04;101601.32;1676367;84;21132;-75
2021/11/06 06:00:33;;;;;;;13.15;5.62;;;;;;;7.59;85.05;101607.76;1678992;85;21084;-75
2021/11/06 06:03:08;;;;;;;9.00;5.55;;;;;;;7.60;85.04;101610.77;1678242;85;21509;-75
2021/11/06 06:05:34;;;;;;;10.93;5.70;;;;;;;7.61;85.03;101617.65;1677733;84;21455;-75
2021/11/06 06:08:00;;;;;;;7.35;5.60;;;;;;;7.62;85.05;101616.80;1674582;84;21117;-75
2021/11/06 06:10:33;;;;;;;11.40;6.20;;;;;;;7.63;85.06;101616.83;1672663;84;21056;-75
2021/11/06 06:12:59;;;;;;;11.60;6.55;;;;;;;7.64;85.08;101618.98;1678194;84;21122;-76
2021/11/06 06:15:25;;;;;;;6.65;4.85;;;;;;;7.64;85.05;101621.13;1684158;84;21607;-76
2021/11/06 06:17:53;;;;;;;8.58;5.90;;;;;;;7.66;85.09;101617.70;1664888;85;21057;-76
2021/11/06 06:20:20;;;;;;;7.90;5.70;;;;;;;7.66;85.06;101617.70;1677160;85;21536;-76
2021/11/06 06:22:46;;;;;;;;;;;;;;;7.68;85.06;101626.31;1678098;85;21037;-76
2021/11/06 06:25:14;;;;;;;15.35;6.55;;;;;;;7.69;85.10;101629.33;1682165;83;20172;-76
2021/11/06 06:27:42;;;;;;;9.00;5.50;;;;;;;7.69;85.07;101626.75;1684534;84;21066;-76
2021/11/06 06:30:12;;;;;;;9.95;6.40;;;;;;;7.72;85.07;101630.66;1660957;84;21074;-76
2021/11/06 06:32:39;;;;;;;6.80;5.72;;;;;;;7.71;85.04;101631.08;1661581;83;20919;-76
2021/11/06 06:35:06;;;;;;;;;;;;;;;7.72;85.08;101637.95;1684984;84;21045;-76
2021/11/06 06:37:33;;;;;;;10.08;6.53;;;;;;;7.74;85.08;101639.26;1663943;85;20212;-76
2021/11/06 06:39:59;;;;;;;7.72;6.22;;;;;;;7.75;85.09;101640.98;1681310;83;21560;-77
2021/11/06 06:42:24;;;;;;;8.43;6.80;;;;;;;7.76;85.07;101638.86;1673007;84;21612;-76
2021/11/06 06:44:52;;;;;;;12.37;6.23;;;;;;;7.77;85.10;101640.58;1681279;83;20975;-76
2021/11/06 06:47:18;;;;;;;15.45;7.83;;;;;;;7.77;85.06;101647.88;1670999;83;21029;-76
2021/11/06 06:49:46;;;;;;;10.78;6.80;;;;;;;7.78;85.09;101652.19;1683740;83;21420;-76
2021/11/06 06:52:14;;;;;;;13.05;6.55;;;;;;;7.80;85.08;101650.46;1680912;85;21255;-76
2021/11/06 06:54:40;;;;;;;8.40;6.20;;;;;;;7.81;85.05;101650.04;1679500;83;20931;-76
2021/11/06 06:57:06;;;;;;;8.85;6.15;;;;;;;7.82;85.08;101654.34;1684112;84;20892;-76
2021/11/06 06:59:33;;;;;;;7.12;5.60;;;;;;;7.83;85.10;101658.22;1680528;84;20975;-76
2021/11/06 07:02:02;;;;;;;15.15;6.65;;;;;;;7.84;85.12;101654.80;1679736;83;20927;-76
2021/11/06 07:04:28;;;;;;;15.13;6.70;;;;;;;7.86;85.10;101659.97;1667636;84;20911;-76
2021/11/06 07:06:55;;;;;;;12.53;7.17;;;;;;;7.88;85.09;101662.14;1673959;84;20950;-76
2021/11/06 07:09:21;;;;;;;13.30;6.47;;;;;;;7.88;85.12;101663.01;1666928;85;20935;-76
2021/11/06 07:11:48;;;;;;;14.05;6.70;;;;;;;7.91;85.10;101660.89;1667485;83;20965;-76
2021/11/06 07:14:16;;;;;;;8.33;6.28;;;;;;;7.93;85.09;101661.77;1666905;84;21133;-76
2021/11/06 07:16:43;;;;;;;7.80;5.92;;;;;;;7.93;85.09;101660.06;1667943;85;21113;-76
2021/11/06 07:19:11;;;;;;;8.28;5.28;;;;;;;7.95;85.12;101657.50;1680167;83;20958;-76
2021/11/06 07:21:37;;;;;;;8.03;5.42;;;;;;;7.95;85.08;101657.50;1662901;84;20974;-76
2021/11/06 07:24:05;;;;;;;8.85;5.22;;;;;;;7.97;85.09;101668.69;1664040;85;20989;-76
2021/11/06 07:26:31;;;;;;;9.85;5.90;;;;;;;7.98;85.11;101674.28;1669812;83;21500;-76
2021/11/06 07:28:57;;;;;;;8.50;5.35;;;;;;;7.98;85.10;101670.00;1665195;84;21005;-76
2021/11/06 07:31:24;;;;;;;11.33;5.77;;;;;;;8.02;85.11;101679.05;1673989;85;21510;-77
2021/11/06 07:33:53;;;;;;;20.37;5.67;;;;;;;8.02;85.11;101683.77;1667615;83;20965;-77
2021/11/06 07:36:18;;;;;;;7.62;5.40;;;;;;;8.04;85.10;101678.22;1672964;84;20927;-76
2021/11/06 07:38:44;;;;;;;;;;;;;;;8.06;85.14;101682.09;1672344;84;20921;-76
2021/11/06 07:41:11;;;;;;;7.80;5.30;;;;;;;8.08;85.13;101674.83;1678187;83;20738;-76
2021/11/06 07:43:38;;;;;;;8.35;5.40;;;;;;;8.11;85.12;101676.58;1671412;84;21493;-76
2021/11/06 07:46:05;;;;;;;11.60;5.47;;;;;;;8.14;85.15;101681.34;1667648;85;20942;-76
2021/11/06 07:48:31;;;;;;;8.15;4.90;;;;;;;8.17;85.13;101676.64;1663199;85;21588;-76
2021/11/06 07:50:57;;;;;;;7.85;5.87;;;;;;;8.20;85.12;101684.41;1666710;85;20975;-76
2021/11/06 07:53:24;;;;;;;14.23;6.37;;;;;;;8.23;85.13;101672.84;1663084;85;20933;-76
2021/11/06 07:55:55;;;;;;;9.48;5.85;;;;;;;8.26;85.08;101676.74;1673016;83;20916;-78
2021/11/06 07:58:22;;;;;;;8.80;5.50;;;;;;;8.25;85.07;101678.45;1682334;83;20917;-76
2021/11/06 08:00:48;;;;;;;9.28;6.03;;;;;;;8.28;85.10;101681.48;1673115;85;20945;-76
2021/11/06 08:03:15;;;;;;;8.33;6.17;;;;;;;8.31;85.09;101675.08;1682300;83;20934;-75
2021/11/06 08:05:43;;;;;;;7.30;5.62;;;;;;;8.34;85.11;101681.98;1684591;85;21421;-75
2021/11/06 08:08:09;;;;;;;10.78;6.37;;;;;;;8.35;85.06;101688.44;1673047;83;20946;-75
2021/11/06 08:10:35;;;;;;;11.97;6.20;;;;;;;8.36;85.06;101693.17;1664876;85;20967;-77
2021/11/06 08:13:04;;;;;;;11.43;5.67;;;;;;;8.38;85.06;101694.91;1672780;85;20930;-77
2021/11/06 08:15:31;;;;;;;7.10;5.75;;;;;;;8.37;85.02;101695.76;1684305;83;20989;-78
2021/11/06 08:17:58;;;;;;;10.30;6.03;;;;;;;8.37;85.00;101694.90;1660784;85;25573;-78
2021/11/06 08:20:25;;;;;;;13.13;6.17;;;;;;;8.37;85.05;101698.77;1678495;83;20979;-79
2021/11/06 08:22:54;;;;;;;8.58;4.97;;;;;;;8.36;85.01;101703.05;1676764;85;28028;-77
2021/11/06 08:25:22;;;;;;;13.53;6.12;;;;;;;8.35;85.01;101712.05;1678659;83;20899;-77
2021/11/06 08:27:52;;;;;;;14.15;5.95;;;;;;;8.34;85.00;101712.91;1671322;85;20938;-77
2021/11/06 08:30:22;;;;;;;11.95;5.78;;;;;;;8.34;85.03;101706.46;1674574;85;20946;-77
2021/11/06 08:32:50;;;;;;;9.05;5.53;;;;;;;8.34;85.04;101707.33;1669879;85;21031;-78
2021/11/06 08:35:17;;;;;;;6.53;5.10;;;;;;;8.34;85.00;101704.75;1675256;83;20943;-77
2021/11/06 08:37:44;;;;;;;12.45;6.03;;;;;;;8.34;85.00;101709.03;1625221;86;20933;-77
2021/11/06 08:40:11;;;;;;;;;;;;;;;8.33;85.00;101710.75;1615938;86;20949;-77
2021/11/06 08:42:37;;;;;;;11.03;5.50;;;;;;;8.34;84.99;101706.46;1633245;87;20151;-77
2021/11/06 08:45:07;;;;;;;11.85;7.17;;;;;;;8.34;85.01;101712.91;1634485;86;20962;-77
2021/11/06 08:47:35;;;;;;;9.75;5.97;;;;;;;8.34;85.01;101719.34;1633551;86;20928;-76
2021/11/06 08:50:04;;;;;;;12.35;6.10;;;;;;;8.34;84.98;101714.19;1612517;88;21757;-77
2021/11/06 08:52:30;;;;;;;9.55;5.55;;;;;;;8.33;85.02;101718.48;1641291;85;20891;-77
2021/11/06 08:54:56;;;;;;;10.78;5.53;;;;;;;8.33;84.96;101715.91;1643631;86;21118;-76
2021/11/06 08:57:22;;;;;;;7.87;5.03;;;;;;;8.34;84.94;101715.48;1621802;86;21067;-78
2021/11/06 08:59:53;;;;;;;8.47;5.20;;;;;;;8.34;84.92;101726.66;1626281;86;21099;-77
2021/11/06 09:02:17;;;;;;;7.35;5.05;;;;;;;8.34;84.96;101720.63;1644799;86;21466;-76
2021/11/06 09:04:45;;;;;;;6.87;4.97;;;;;;;8.36;84.99;101722.38;1605130;87;21018;-76
2021/11/06 09:07:11;;;;;;;9.05;4.53;;;;;;;8.37;84.97;101727.98;1620997;87;21581;-77
2021/11/06 09:09:37;;;;;;;6.60;4.35;;;;;;;8.39;84.99;101734.02;1617304;88;21089;-78
2021/11/06 09:12:04;;;;;;;8.63;5.30;;;;;;;8.42;84.98;101739.20;1611503;87;21078;-77
2021/11/06 09:14:32;;;;;;;10.95;5.80;;;;;;;8.43;84.95;101729.33;1646467;86;21013;-76
2021/11/06 09:16:58;;;;;;;12.93;5.00;;;;;;;8.46;84.95;101723.34;1619088;87;21514;-77
2021/11/06 09:19:25;;;;;;;9.48;5.55;;;;;;;8.49;84.94;101733.27;1645566;86;20900;-77
2021/11/06 09:21:51;;;;;;;14.30;6.83;;;;;;;8.53;84.96;101725.14;1642180;86;20939;-77
2021/11/06 09:24:18;;;;;;;6.00;4.17;;;;;;;8.58;84.93;101722.19;1609425;88;21016;-77
2021/11/06 09:26:45;;;;;;;6.83;4.22;;;;;;;8.62;84.95;101723.52;1620117;88;21580;-77
2021/11/06 09:29:14;;;;;;;8.85;3.98;;;;;;;8.66;84.92;101722.26;1616583;86;21002;-77
2021/11/06 09:31:42;;;;;;;4.80;3.75;;;;;;;8.69;84.94;101724.44;1613612;87;20960;-77
2021/11/06 09:34:10;;;;;;;5.78;3.58;;;;;;;8.74;84.92;101728.36;1621386;86;20896;-77
2021/11/06 09:36:38;;;;;;;8.68;3.80;;;;;;;8.76;84.92;101722.36;1633845;86;20941;-77
2021/11/06 09:39:06;;;;;;;7.53;3.92;;;;;;;8.80;84.89;101726.70;1648664;86;20977;-77
2021/11/06 09:41:33;;;;;;;4.58;3.37;;;;;;;8.84;84.89;101722.40;1634380;86;20941;-77
2021/11/06 09:43:59;;;;;;;;;;;;;;;8.87;84.88;101732.31;1627017;86;20962;-78
2021/11/06 09:46:26;;;;;;;8.18;3.50;;;;;;;8.90;84.79;101736.64;1619128;88;20104;-77
2021/11/06 09:48:52;;;;;;;6.83;3.67;;;;;;;8.91;84.79;101734.08;1644139;86;21010;-77
2021/11/06 09:51:20;;;;;;;10.88;4.47;;;;;;;8.94;84.81;101728.08;1645937;87;21006;-76
2021/11/06 09:53:51;;;;;;;6.72;4.05;;;;;;;8.95;84.82;101731.09;1633645;86;21489;-77
2021/11/06 09:56:33;;;;;;;9.17;4.13;;;;;;;8.99;84.78;101721.67;1642548;86;21837;-78
2021/11/06 09:59:02;;;;;;;9.38;4.37;;;;;;;9.05;84.84;101721.30;1645518;85;28063;-76
2021/11/06 10:01:31;;;;;;;8.28;3.95;;;;;;;9.11;84.87;101718.77;1629190;86;20981;-77
2021/11/06 10:03:58;;;;;;;7.08;3.70;;;;;;;9.16;84.82;101714.92;1634237;86;20918;-77
2021/11/06 10:06:28;;;;;;;5.35;3.17;;;;;;;9.20;84.81;101717.55;1637245;86;226629;-77
2021/11/06 10:08:57;;;;;;;7.05;3.27;;;;;;;9.27;84.81;101712.00;1640958;86;21053;-77
2021/11/06 10:11:30;;;;;;;4.85;2.75;;;;;;;9.32;84.77;101714.61;1638856;86;22489;-77
2021/11/06 10:14:07;;;;;;;9.58;3.33;;;;;;;9.35;84.76;101713.34;1644704;86;21493;-77
2021/11/06 10:16:44;;;;;;;5.80;3.00;;;;;;;9.39;84.73;101717.64;1633834;86;21022;-77
2021/11/06 10:19:30;;;;;;;7.78;3.00;;;;;;;9.42;84.74;101718.53;1621890;87;21425;-77
2021/11/06 10:22:12;;;;;;;5.97;2.87;;;;;;;9.46;84.74;101713.81;1621366;87;21473;-78
2021/11/06 10:24:50;;;;;;;5.05;2.67;;;;;;;9.49;84.73;101710.39;1644434;86;22071;-78
2021/11/06 10:27:27;;;;;;;9.60;3.10;;;;;;;9.53;84.69;101704.39;1642172;86;22230;-78
2021/11/06 10:30:13;;;;;;;3.87;2.65;;;;;;;9.56;84.70;101705.27;1641251;86;21073;-78
2021/11/06 10:33:01;;;;;;;8.23;3.00;;;;;;;9.61;84.70;101709.17;1647090;85;21549;-78
2021/11/06 10:35:36;;;;;;;3.80;2.70;;;;;;;9.67;84.68;101710.92;1626274;87;22179;-76
2021/11/06 10:38:07;;;;;;;6.75;2.98;;;;;;;9.70;84.63;101710.52;1640670;86;21546;-77
2021/11/06 10:40:42;;;;;;;5.60;3.15;;;;;;;9.74;84.62;101705.80;1647139;85;22322;-77
2021/11/06 10:43:11;;;;;;;7.80;2.85;;;;;;;9.74;84.55;101708.39;1621609;88;21138;-77
2021/11/06 10:45:51;;;;;;;5.35;3.00;;;;;;;9.77;84.58;101706.25;1613921;88;21437;-77
2021/11/06 10:48:20;;;;;;;4.37;2.37;;;;;;;9.76;84.58;101698.92;1626888;87;21400;-78
2021/11/06 10:51:06;;;;;;;5.65;3.50;;;;;;;9.78;84.56;101714.43;1639594;86;21410;-78
2021/11/06 10:53:54;;;;;;;5.03;2.90;;;;;;;9.80;84.51;101703.25;1637921;86;21084;-78
2021/11/06 10:56:41;;;;;;;6.60;3.20;;;;;;;9.83;84.45;101701.97;1653605;85;20974;-78
2021/11/06 10:59:19;;;;;;;8.83;3.10;;;;;;;9.86;84.54;101692.95;1628735;86;21448;-78
2021/11/06 11:01:56;;;;;;;9.73;3.33;;;;;;;9.88;84.42;101705.84;1644569;86;20998;-77
2021/11/06 11:04:24;;;;;;;;;;;;;;;9.93;84.48;101707.59;1640711;86;21838;-77
2021/11/06 11:06:53;;;;;;;7.58;3.00;;;;;;;9.96;84.28;101703.72;1636426;86;20139;-77
2021/11/06 11:09:27;;;;;;;7.67;3.27;;;;;;;9.98;84.40;101705.02;1638498;86;21441;-77
2021/11/06 11:11:57;;;;;;;4.78;3.17;;;;;;;9.98;84.23;101707.61;1649886;85;21068;-78
2021/11/06 11:14:27;;;;;;;6.15;3.40;;;;;;;9.97;84.28;101700.70;1647759;86;22213;-78
2021/11/06 11:17:03;;;;;;;8.20;3.25;;;;;;;9.95;84.27;101707.16;1647409;86;21504;-76
2021/11/06 11:19:44;;;;;;;8.23;3.52;;;;;;;9.96;84.25;101709.31;1644132;86;22272;-80
2021/11/06 11:22:31;;;;;;;6.10;3.50;;;;;;;9.98;84.27;101710.19;1646448;86;21417;-80
2021/11/06 11:25:00;;;;;;;5.80;3.27;;;;;;;9.98;84.21;101708.03;1648268;86;21092;-79
2021/11/06 11:27:26;;;;;;;6.40;2.92;;;;;;;9.94;84.12;101715.77;1644972;86;21153;-79
2021/11/06 11:29:54;;;;;;;6.67;2.92;;;;;;;9.91;84.07;101707.14;1637554;86;21542;-79
2021/11/06 11:32:21;;;;;;;8.30;3.17;;;;;;;9.88;84.03;101705.41;1637705;86;21470;-79
2021/11/06 11:34:48;;;;;;;5.92;3.30;;;;;;;9.87;84.12;101708.88;1638246;86;21114;-79
2021/11/06 11:37:16;;;;;;;4.45;2.60;;;;;;;9.85;84.13;101704.13;1637753;87;21126;-78